Accueil
METAR-TAF:

METAR-TAF

Aéroports :

Bad Vöslau, Autriche

latitude: 47-57-52N, longitude: 016-15-34E, altitude: 233 m

Observation

Le bulletin a été fait il y a 11 heures et 7 minutes, à 15:00 UTC
Vent 4 kt de nord
Température 4°C
Humidité 100%
Pression
Visibilité: 0900 m
brouillard

METAR: LOAV 051500Z 36004KT 0900 FG VV005 04/04

Heure: 03:07 (02:07 UTC)

Prévision

Le bulletin a été fait il y a 11 heures et 1 minutes, à 15:06 UTC
Prévision valable du 05 à 15 UTC au 05 à 21 UTC
Vent 4 kt de direction variable
Visibilité: 3000 m
Nuages fragmentés à une hauteur de 600 ft
Temporairement
du 05 à 15 UTC au 05 à 21 UTC
Visibilité: 0800 m
à une hauteur de 300 ft
brouillard

TAF: LOAV 051506Z 0515/0521 VRB04KT 3000 BKN006 TEMPO 0515/0521 0800 FG VV003

Observations et prévisions météorologiques de plus de 4000 aéroports (messages METAR et TAF).

Les stations disponibles sont représentées par des disques jaunes et rouges sur la carte.

Passer la souris dessus pour voir le nom de la station.

Cliquer dessus pour voir les observations et prévisions météorologiques.

Pour changer de carte: cliquez sur les boutons verts avec une croix noire pour zoomer, sur le bouton vert avec un tiret pour effectuer un zoom arrière, ou sur les flèches vertes pour les cartes adjacentes.


METAR-TAF: